createdAt,value
2023-04-02T00:00:12.089Z,54.30
2023-04-02T00:02:54.942Z,54.30
2023-04-02T00:05:30.501Z,54.40
2023-04-02T00:08:04.152Z,54.40
2023-04-02T00:10:36.842Z,54.40
2023-04-02T00:13:24.079Z,54.40
2023-04-02T00:15:56.856Z,54.40
2023-04-02T00:18:25.021Z,54.40
2023-04-02T00:21:24.404Z,55.30
2023-04-02T00:23:54.466Z,54.50
2023-04-02T00:26:31.327Z,54.70
2023-04-02T00:29:03.308Z,54.50
2023-04-02T00:31:31.530Z,54.50
2023-04-02T00:33:59.646Z,54.50
2023-04-02T00:36:30.485Z,55.20
2023-04-02T00:38:59.788Z,54.60
2023-04-02T00:41:30.596Z,54.90
2023-04-02T00:43:58.704Z,54.70
2023-04-02T00:46:34.769Z,54.70
2023-04-02T00:49:10.658Z,54.70
2023-04-02T00:52:01.158Z,55.20
2023-04-02T00:54:31.225Z,54.70
2023-04-02T00:56:59.029Z,55.50
2023-04-02T00:59:33.440Z,54.80
2023-04-02T01:02:26.256Z,54.80
2023-04-02T01:05:21.862Z,56.00
2023-04-02T01:08:16.833Z,54.80
2023-04-02T01:11:01.658Z,54.80
2023-04-02T01:13:36.231Z,54.80
2023-04-02T01:16:15.895Z,54.80
2023-04-02T01:19:02.005Z,55.60
2023-04-02T01:21:44.056Z,54.80
2023-04-02T01:24:14.837Z,55.20
2023-04-02T01:27:02.866Z,55.00
2023-04-02T01:29:45.360Z,54.80
2023-04-02T01:32:19.647Z,54.80
2023-04-02T01:34:49.058Z,54.90
2023-04-02T01:37:52.628Z,55.30
2023-04-02T01:40:28.212Z,54.80
2023-04-02T01:43:13.040Z,54.80
2023-04-02T01:45:40.442Z,54.80
2023-04-02T01:48:22.363Z,55.20
2023-04-02T01:50:51.530Z,54.80
2023-04-02T01:53:20.754Z,54.80
2023-04-02T01:55:57.070Z,54.90
2023-04-02T01:58:29.194Z,55.30
2023-04-02T02:01:02.080Z,54.80
2023-04-02T02:03:31.413Z,56.10
2023-04-02T02:05:59.180Z,54.90
2023-04-02T02:08:48.091Z,55.80
2023-04-02T02:11:21.514Z,54.80
2023-04-02T02:13:56.169Z,54.80
2023-04-02T02:16:23.443Z,54.90
2023-04-02T02:18:54.296Z,54.70
2023-04-02T02:21:43.590Z,55.50
2023-04-02T02:24:32.285Z,54.80
2023-04-02T02:27:24.326Z,54.80
2023-04-02T02:30:07.452Z,54.80
2023-04-02T02:32:39.151Z,54.80
2023-04-02T02:35:22.460Z,54.90
2023-04-02T02:38:15.591Z,54.80
2023-04-02T02:40:46.959Z,55.60
2023-04-02T02:43:17.303Z,55.10
2023-04-02T02:45:47.357Z,54.80
2023-04-02T02:48:18.089Z,54.90
2023-04-02T02:50:45.631Z,55.10
2023-04-02T02:53:24.892Z,54.90
2023-04-02T02:55:58.327Z,54.90
2023-04-02T02:58:32.853Z,55.20
2023-04-02T03:01:14.083Z,54.90
2023-04-02T03:03:44.741Z,55.00
2023-04-02T03:06:16.625Z,55.00
2023-04-02T03:09:02.733Z,55.10
2023-04-02T03:11:43.393Z,55.20
2023-04-02T03:14:30.807Z,54.90
2023-04-02T03:17:22.952Z,54.80
2023-04-02T03:20:06.339Z,54.90
2023-04-02T03:22:41.346Z,55.10
2023-04-02T03:25:29.681Z,54.90
2023-04-02T03:28:11.699Z,54.80
2023-04-02T03:30:42.681Z,55.70
2023-04-02T03:33:33.990Z,55.40
2023-04-02T03:36:13.461Z,55.20
2023-04-02T03:38:56.008Z,54.90
2023-04-02T03:41:41.612Z,54.90
2023-04-02T03:44:21.664Z,54.90
2023-04-02T03:46:58.096Z,55.60
2023-04-02T03:49:41.204Z,54.90
2023-04-02T03:52:13.532Z,54.90
2023-04-02T03:54:53.867Z,54.90
2023-04-02T03:57:55.924Z,54.80
2023-04-02T04:00:39.404Z,54.90
2023-04-02T04:03:16.215Z,54.80
2023-04-02T04:05:51.766Z,54.80
2023-04-02T04:08:26.209Z,55.00
2023-04-02T04:10:57.383Z,55.20
2023-04-02T04:13:51.393Z,55.30
2023-04-02T04:16:31.439Z,54.90
2023-04-02T04:19:10.797Z,54.90
2023-04-02T04:21:38.503Z,54.90
2023-04-02T04:24:27.327Z,55.70
2023-04-02T04:27:34.617Z,54.90
2023-04-02T04:30:19.684Z,54.90
2023-04-02T04:32:57.961Z,54.80
2023-04-02T04:35:37.111Z,55.30
2023-04-02T04:38:27.467Z,54.80
2023-04-02T04:41:15.443Z,54.90
2023-04-02T04:44:09.638Z,54.90
2023-04-02T04:46:49.325Z,54.80
2023-04-02T04:49:19.147Z,55.00
2023-04-02T04:51:53.527Z,54.80
2023-04-02T04:54:26.739Z,54.70
2023-04-02T04:57:00.933Z,54.90
2023-04-02T04:59:43.101Z,55.00
2023-04-02T05:02:29.504Z,54.70
2023-04-02T05:04:58.247Z,54.60
2023-04-02T05:07:29.582Z,54.70
2023-04-02T05:10:02.769Z,55.00
2023-04-02T05:12:48.816Z,54.60
2023-04-02T05:15:41.999Z,54.50
2023-04-02T05:18:31.171Z,55.20
2023-04-02T05:21:12.688Z,54.60
2023-04-02T05:24:13.873Z,54.60
2023-04-02T05:26:44.157Z,54.40
2023-04-02T05:29:18.046Z,54.40
2023-04-02T05:31:56.023Z,55.20
2023-04-02T05:34:27.623Z,55.50
2023-04-02T05:36:55.612Z,55.20
2023-04-02T05:39:24.549Z,54.20
2023-04-02T05:42:14.453Z,54.30
2023-04-02T05:45:18.578Z,54.20
2023-04-02T05:47:49.940Z,54.10
2023-04-02T05:50:27.074Z,54.70
2023-04-02T05:53:14.464Z,53.90
2023-04-02T05:56:17.647Z,53.90
2023-04-02T05:58:53.117Z,53.80
2023-04-02T06:01:39.410Z,54.10
2023-04-02T06:04:23.076Z,53.90
2023-04-02T06:07:22.200Z,54.00
2023-04-02T06:10:03.512Z,54.00
2023-04-02T06:12:52.382Z,54.50
2023-04-02T06:15:22.372Z,53.90
2023-04-02T06:18:18.721Z,53.80
2023-04-02T06:20:46.922Z,53.80
2023-04-02T06:23:32.115Z,54.00
2023-04-02T06:26:04.830Z,53.70
2023-04-02T06:28:52.550Z,53.70
2023-04-02T06:31:38.329Z,53.60
2023-04-02T06:34:22.092Z,53.50
2023-04-02T06:37:03.332Z,54.70
2023-04-02T06:39:32.430Z,53.40
2023-04-02T06:42:20.627Z,53.90
2023-04-02T06:45:00.434Z,53.30
2023-04-02T06:47:50.402Z,53.50
2023-04-02T06:50:56.832Z,53.50
2023-04-02T06:53:29.085Z,53.60
2023-04-02T06:56:22.741Z,54.30
2023-04-02T06:58:50.260Z,53.70
2023-04-02T07:01:22.796Z,54.00
2023-04-02T07:03:49.923Z,55.00
2023-04-02T07:06:25.464Z,55.10
2023-04-02T07:08:54.745Z,54.80
2023-04-02T07:11:23.432Z,55.60
2023-04-02T07:13:53.240Z,55.70
2023-04-02T07:16:26.407Z,55.60
2023-04-02T07:18:55.780Z,55.80
2023-04-02T07:21:23.196Z,55.30
2023-04-02T07:23:50.284Z,55.80
2023-04-02T07:26:22.246Z,56.90
2023-04-02T07:28:49.456Z,56.20
2023-04-02T07:31:24.110Z,55.80
2023-04-02T07:33:51.252Z,55.70
2023-04-02T07:36:21.646Z,55.90
2023-04-02T07:38:49.134Z,56.00
2023-04-02T07:41:16.592Z,56.10
2023-04-02T07:43:43.508Z,55.40
2023-04-02T07:46:11.718Z,55.40
2023-04-02T07:48:39.210Z,56.20
2023-04-02T07:51:13.767Z,55.10
2023-04-02T07:53:41.687Z,55.20
2023-04-02T07:56:08.344Z,55.30
2023-04-02T07:58:35.479Z,55.90
2023-04-02T08:01:03.746Z,55.30
2023-04-02T08:03:31.251Z,55.40
2023-04-02T08:05:58.871Z,54.80
2023-04-02T08:08:26.204Z,55.20
2023-04-02T08:10:52.983Z,54.30
2023-04-02T08:13:19.780Z,54.50
2023-04-02T08:15:46.947Z,55.10
2023-04-02T08:18:13.896Z,54.80
2023-04-02T08:20:40.663Z,54.00
2023-04-02T08:23:15.401Z,54.40
2023-04-02T08:25:42.370Z,53.90
2023-04-02T08:28:09.236Z,54.30
2023-04-02T08:30:36.473Z,54.50
2023-04-02T08:33:03.765Z,53.70
2023-04-02T08:35:30.909Z,53.60
2023-04-02T08:37:57.610Z,53.50
2023-04-02T08:40:33.951Z,54.10
2023-04-02T08:43:09.777Z,53.40
2023-04-02T08:45:55.483Z,53.30
2023-04-02T08:48:23.360Z,53.40
2023-04-02T08:50:51.000Z,53.30
2023-04-02T08:53:24.634Z,53.50
2023-04-02T08:56:17.903Z,53.80
2023-04-02T08:58:48.473Z,53.20
2023-04-02T09:01:43.192Z,54.10
2023-04-02T09:04:20.400Z,52.90
2023-04-02T09:06:49.374Z,53.10
2023-04-02T09:09:17.434Z,53.20
2023-04-02T09:12:07.384Z,53.40
2023-04-02T09:14:41.762Z,52.80
2023-04-02T09:17:20.666Z,52.80
2023-04-02T09:19:57.472Z,52.70
2023-04-02T09:22:27.060Z,52.80
2023-04-02T09:24:59.262Z,53.20
2023-04-02T09:27:29.552Z,52.80
2023-04-02T09:30:31.934Z,52.60
2023-04-02T09:33:02.391Z,52.50
2023-04-02T09:35:32.270Z,52.90
2023-04-02T09:38:22.221Z,52.60
2023-04-02T09:40:54.568Z,52.40
2023-04-02T09:43:30.622Z,52.40
2023-04-02T09:46:17.650Z,52.30
2023-04-02T09:48:54.784Z,52.30
2023-04-02T09:51:27.338Z,52.30
2023-04-02T09:54:03.009Z,52.30
2023-04-02T09:56:34.701Z,52.20
2023-04-02T09:59:13.367Z,52.20
2023-04-02T10:01:56.646Z,52.20
2023-04-02T10:04:37.339Z,52.20
2023-04-02T10:07:06.470Z,52.30
2023-04-02T10:09:36.709Z,53.10
2023-04-02T10:12:10.813Z,52.10
2023-04-02T10:14:43.048Z,52.00
2023-04-02T10:17:30.071Z,52.00
2023-04-02T10:20:11.369Z,52.00
2023-04-02T10:22:38.684Z,51.90
2023-04-02T10:25:14.766Z,52.50
2023-04-02T10:28:17.177Z,51.90
2023-04-02T10:31:17.845Z,51.90
2023-04-02T10:33:50.978Z,51.90
2023-04-02T10:36:30.165Z,52.10
2023-04-02T10:39:02.449Z,51.90
2023-04-02T10:41:59.944Z,51.80
2023-04-02T10:44:42.730Z,51.80
2023-04-02T10:47:41.254Z,51.70
2023-04-02T10:50:32.421Z,51.70
2023-04-02T10:53:11.948Z,51.60
2023-04-02T10:55:44.184Z,51.60
2023-04-02T10:58:33.381Z,52.30
2023-04-02T11:01:09.210Z,51.70
2023-04-02T11:03:53.783Z,51.50
2023-04-02T11:06:43.638Z,51.50
2023-04-02T11:09:18.282Z,51.50
2023-04-02T11:11:48.696Z,52.10
2023-04-02T11:14:23.657Z,52.30
2023-04-02T11:16:51.789Z,51.30
2023-04-02T11:19:18.516Z,51.30
2023-04-02T11:22:00.104Z,51.60
2023-04-02T11:24:33.645Z,51.20
2023-04-02T11:27:24.317Z,51.60
2023-04-02T11:30:03.932Z,51.20
2023-04-02T11:32:32.047Z,51.10
2023-04-02T11:35:07.275Z,51.40
2023-04-02T11:37:43.239Z,51.20
2023-04-02T11:40:15.523Z,51.10
2023-04-02T11:42:43.976Z,51.20
2023-04-02T11:45:23.127Z,51.00
2023-04-02T11:48:05.951Z,51.40
2023-04-02T11:50:44.463Z,51.10
2023-04-02T11:53:11.489Z,51.00
2023-04-02T11:55:46.601Z,51.00
2023-04-02T11:58:32.311Z,50.90
2023-04-02T12:01:24.870Z,51.00
2023-04-02T12:04:16.670Z,51.00
2023-04-02T12:06:46.701Z,50.90
2023-04-02T12:09:54.953Z,50.90
2023-04-02T12:12:32.114Z,50.80
2023-04-02T12:14:59.805Z,50.80
2023-04-02T12:17:31.434Z,51.60
2023-04-02T12:20:05.729Z,50.70
2023-04-02T12:22:34.762Z,50.70
2023-04-02T12:25:05.934Z,50.70
2023-04-02T12:27:32.874Z,51.20
2023-04-02T12:30:19.704Z,50.80
2023-04-02T12:32:47.801Z,50.60
2023-04-02T12:35:30.668Z,50.80
2023-04-02T12:37:57.958Z,50.60
2023-04-02T12:40:26.485Z,51.20
2023-04-02T12:42:53.570Z,50.50
2023-04-02T12:45:27.844Z,51.50
2023-04-02T12:47:56.955Z,50.40
2023-04-02T12:50:24.047Z,50.60
2023-04-02T12:52:53.235Z,50.70
2023-04-02T12:55:23.099Z,51.00
2023-04-02T12:57:56.439Z,50.40
2023-04-02T13:00:24.420Z,51.10
2023-04-02T13:03:19.365Z,50.60
2023-04-02T13:05:56.328Z,50.40
2023-04-02T13:08:27.463Z,50.20
2023-04-02T13:11:00.775Z,50.30
2023-04-02T13:13:33.819Z,50.40
2023-04-02T13:16:21.327Z,50.30
2023-04-02T13:18:49.633Z,50.10
2023-04-02T13:21:19.498Z,50.20
2023-04-02T13:23:47.055Z,50.10
2023-04-02T13:26:21.909Z,50.10
2023-04-02T13:29:18.856Z,50.10
2023-04-02T13:31:45.822Z,50.10
2023-04-02T13:34:12.465Z,50.00
2023-04-02T13:36:39.316Z,50.00
2023-04-02T13:39:06.440Z,50.10
2023-04-02T13:41:42.563Z,50.00
2023-04-02T13:44:22.851Z,50.00
2023-04-02T13:46:50.872Z,50.00
2023-04-02T13:49:18.335Z,50.50
2023-04-02T13:51:58.643Z,49.90
2023-04-02T13:54:27.554Z,49.80
2023-04-02T13:56:56.312Z,50.20
2023-04-02T13:59:24.389Z,50.60
2023-04-02T14:01:52.491Z,50.40
2023-04-02T14:04:24.461Z,50.30
2023-04-02T14:07:09.693Z,49.80
2023-04-02T14:09:50.835Z,49.60
2023-04-02T14:12:49.927Z,49.70
2023-04-02T14:15:31.472Z,49.60
2023-04-02T14:18:16.493Z,49.60
2023-04-02T14:20:46.036Z,49.50
2023-04-02T14:23:50.305Z,49.90
2023-04-02T14:26:41.229Z,49.40
2023-04-02T14:29:27.002Z,49.40
2023-04-02T14:32:03.148Z,49.30
2023-04-02T14:34:49.263Z,49.30
2023-04-02T14:37:28.141Z,49.20
2023-04-02T14:40:09.913Z,49.20
2023-04-02T14:43:05.713Z,49.20
2023-04-02T14:45:46.993Z,49.00
2023-04-02T14:48:22.531Z,49.00
2023-04-02T14:50:52.959Z,49.00
2023-04-02T14:53:29.024Z,49.10
2023-04-02T14:55:57.504Z,49.20
2023-04-02T14:58:29.643Z,48.90
2023-04-02T15:01:25.373Z,48.80
2023-04-02T15:04:05.696Z,48.70
2023-04-02T15:06:44.840Z,48.70
2023-04-02T15:09:31.252Z,48.80
2023-04-02T15:12:08.891Z,48.60
2023-04-02T15:14:42.276Z,48.80
2023-04-02T15:17:12.740Z,48.50
2023-04-02T15:19:39.758Z,48.80
2023-04-02T15:22:17.316Z,48.70
2023-04-02T15:24:54.597Z,48.70
2023-04-02T15:28:00.286Z,48.40
2023-04-02T15:30:41.165Z,48.40
2023-04-02T15:33:35.675Z,48.40
2023-04-02T15:36:21.788Z,48.40
2023-04-02T15:38:58.594Z,48.30
2023-04-02T15:41:27.647Z,48.40
2023-04-02T15:44:15.342Z,48.90
2023-04-02T15:47:25.944Z,48.30
2023-04-02T15:50:20.360Z,48.30
2023-04-02T15:53:24.914Z,48.30
2023-04-02T15:56:26.717Z,48.90
2023-04-02T15:59:13.197Z,48.30
2023-04-02T16:02:12.017Z,48.40
2023-04-02T16:05:06.270Z,48.20
2023-04-02T16:07:58.074Z,48.20
2023-04-02T16:10:42.030Z,48.30
2023-04-02T16:13:26.433Z,48.50
2023-04-02T16:16:11.174Z,48.00
2023-04-02T16:18:42.476Z,48.00
2023-04-02T16:21:15.207Z,48.30
2023-04-02T16:23:42.373Z,48.00
2023-04-02T16:26:57.195Z,48.00
2023-04-02T16:29:51.042Z,48.00
2023-04-02T16:32:32.604Z,48.00
2023-04-02T16:35:38.207Z,47.90
2023-04-02T16:38:31.470Z,48.10
2023-04-02T16:41:08.913Z,48.00
2023-04-02T16:44:05.463Z,48.00
2023-04-02T16:46:58.306Z,48.00
2023-04-02T16:49:31.351Z,47.90
2023-04-02T16:52:08.321Z,48.00
2023-04-02T16:55:09.011Z,48.20
2023-04-02T16:57:58.395Z,47.90
2023-04-02T17:00:41.594Z,47.90
2023-04-02T17:03:26.754Z,47.90
2023-04-02T17:06:04.518Z,47.90
2023-04-02T17:08:44.119Z,47.80
2023-04-02T17:11:24.295Z,47.80
2023-04-02T17:14:06.028Z,47.90
2023-04-02T17:16:37.141Z,48.30
2023-04-02T17:19:10.346Z,47.90
2023-04-02T17:21:39.453Z,48.00
2023-04-02T17:24:22.767Z,48.10
2023-04-02T17:26:59.200Z,47.90
2023-04-02T17:29:34.888Z,47.90
2023-04-02T17:32:03.428Z,48.00
2023-04-02T17:34:30.480Z,48.00
2023-04-02T17:37:03.693Z,47.90
2023-04-02T17:39:42.468Z,48.10
2023-04-02T17:42:26.591Z,47.90
2023-04-02T17:45:14.938Z,48.20
2023-04-02T17:48:05.129Z,47.90
2023-04-02T17:50:45.988Z,47.90
2023-04-02T17:53:38.644Z,47.90
2023-04-02T17:56:24.228Z,47.90
2023-04-02T17:59:12.568Z,47.90
2023-04-02T18:01:54.700Z,47.80
2023-04-02T18:04:34.922Z,47.80
2023-04-02T18:07:24.468Z,47.80
2023-04-02T18:10:09.908Z,47.80
2023-04-02T18:12:53.329Z,47.90
2023-04-02T18:15:46.102Z,47.90
2023-04-02T18:18:22.010Z,47.90
2023-04-02T18:20:58.016Z,47.90
2023-04-02T18:23:47.395Z,48.40
2023-04-02T18:26:39.202Z,47.90
2023-04-02T18:29:15.574Z,47.90
2023-04-02T18:31:53.613Z,48.10
2023-04-02T18:34:35.326Z,47.80
2023-04-02T18:37:18.832Z,47.80
2023-04-02T18:40:15.984Z,47.80
2023-04-02T18:42:48.894Z,47.80
2023-04-02T18:45:22.080Z,48.50
2023-04-02T18:48:03.974Z,47.80
2023-04-02T18:50:33.871Z,47.80
2023-04-02T18:53:24.816Z,47.80
2023-04-02T18:56:14.162Z,47.70
2023-04-02T18:58:49.543Z,48.30
2023-04-02T19:01:22.573Z,47.70
2023-04-02T19:03:53.209Z,47.90
2023-04-02T19:06:28.864Z,47.80
2023-04-02T19:09:07.877Z,47.80
2023-04-02T19:11:34.882Z,47.70
2023-04-02T19:14:07.211Z,47.60
2023-04-02T19:16:47.758Z,48.10
2023-04-02T19:19:23.019Z,47.70
2023-04-02T19:22:08.628Z,47.70
2023-04-02T19:24:57.858Z,47.60
2023-04-02T19:27:33.445Z,47.70
2023-04-02T19:30:41.085Z,47.70
2023-04-02T19:33:35.595Z,47.60
2023-04-02T19:36:38.712Z,47.60
2023-04-02T19:39:25.462Z,47.60
2023-04-02T19:41:57.322Z,47.60
2023-04-02T19:44:24.241Z,47.60
2023-04-02T19:46:53.744Z,48.00
2023-04-02T19:49:32.404Z,47.60
2023-04-02T19:51:59.217Z,47.50
2023-04-02T19:54:26.046Z,47.60
2023-04-02T19:56:52.989Z,48.50
2023-04-02T19:59:19.845Z,47.50
2023-04-02T20:01:47.079Z,48.40
2023-04-02T20:04:14.780Z,48.00
2023-04-02T20:06:41.705Z,47.40
2023-04-02T20:09:08.680Z,48.20
2023-04-02T20:11:37.083Z,47.40
2023-04-02T20:14:04.443Z,48.00
2023-04-02T20:16:32.681Z,47.40
2023-04-02T20:18:59.676Z,47.90
2023-04-02T20:21:27.433Z,47.40
2023-04-02T20:23:55.325Z,47.30
2023-04-02T20:26:23.198Z,49.20
2023-04-02T20:28:50.005Z,47.30
2023-04-02T20:31:18.589Z,47.40
2023-04-02T20:33:46.614Z,47.70
2023-04-02T20:36:15.916Z,47.30
2023-04-02T20:38:43.364Z,47.90
2023-04-02T20:41:10.781Z,47.80
2023-04-02T20:43:40.295Z,47.40
2023-04-02T20:46:10.054Z,48.10
2023-04-02T20:48:38.196Z,47.90
2023-04-02T20:51:06.414Z,47.60
2023-04-02T20:53:34.697Z,47.50
2023-04-02T20:56:08.403Z,47.70
2023-04-02T20:58:36.566Z,47.40
2023-04-02T21:01:32.787Z,47.70
2023-04-02T21:04:02.118Z,47.60
2023-04-02T21:06:31.691Z,48.00
2023-04-02T21:08:58.712Z,47.50
2023-04-02T21:11:26.117Z,48.00
2023-04-02T21:13:53.256Z,48.00
2023-04-02T21:16:21.559Z,48.40
2023-04-02T21:18:50.785Z,47.50
2023-04-02T21:21:18.745Z,48.00
2023-04-02T21:23:45.965Z,48.70
2023-04-02T21:26:16.211Z,48.50
2023-04-02T21:28:43.829Z,47.80
2023-04-02T21:31:13.783Z,47.70
2023-04-02T21:33:42.869Z,47.60
2023-04-02T21:36:12.396Z,47.70
2023-04-02T21:38:43.784Z,47.60
2023-04-02T21:41:17.086Z,47.90
2023-04-02T21:43:48.441Z,47.80
2023-04-02T21:46:17.393Z,48.70
2023-04-02T21:48:44.692Z,48.40
2023-04-02T21:51:14.732Z,48.00
2023-04-02T21:53:42.392Z,47.90
2023-04-02T21:56:17.121Z,49.20
2023-04-02T21:58:46.006Z,48.00
2023-04-02T22:01:26.016Z,49.10
2023-04-02T22:03:57.738Z,48.00
2023-04-02T22:06:26.254Z,48.00
2023-04-02T22:08:58.537Z,48.10
2023-04-02T22:11:28.863Z,48.40
2023-04-02T22:13:56.281Z,48.30
2023-04-02T22:16:26.131Z,48.20
2023-04-02T22:18:56.224Z,48.10
2023-04-02T22:21:25.436Z,48.40
2023-04-02T22:23:52.698Z,48.20
2023-04-02T22:26:20.738Z,48.50
2023-04-02T22:28:47.513Z,49.00
2023-04-02T22:31:17.179Z,48.50
2023-04-02T22:33:45.430Z,48.40
2023-04-02T22:36:13.050Z,47.90
2023-04-02T22:38:40.748Z,47.90
2023-04-02T22:41:08.492Z,48.60
2023-04-02T22:43:35.907Z,48.30
2023-04-02T22:46:04.353Z,48.20
2023-04-02T22:48:31.386Z,48.00
2023-04-02T22:50:59.152Z,47.90
2023-04-02T22:53:27.020Z,48.10
2023-04-02T22:55:53.878Z,48.20
2023-04-02T22:58:21.423Z,49.20
2023-04-02T23:00:48.808Z,48.00
2023-04-02T23:03:15.569Z,48.60
2023-04-02T23:05:42.562Z,48.60
2023-04-02T23:08:09.577Z,48.10
2023-04-02T23:10:36.995Z,48.00
2023-04-02T23:13:03.957Z,48.00
2023-04-02T23:15:31.748Z,48.30
2023-04-02T23:17:59.526Z,48.30
2023-04-02T23:20:26.289Z,48.20
2023-04-02T23:22:52.963Z,47.90
2023-04-02T23:25:19.828Z,48.80
2023-04-02T23:27:46.538Z,48.10
2023-04-02T23:30:13.402Z,48.10
2023-04-02T23:32:40.493Z,47.90
2023-04-02T23:35:07.434Z,48.40
2023-04-02T23:37:34.329Z,48.00
2023-04-02T23:40:01.241Z,48.20
2023-04-02T23:42:28.418Z,48.20
2023-04-02T23:44:55.404Z,48.10
2023-04-02T23:47:22.163Z,47.90
2023-04-02T23:49:48.913Z,48.40
2023-04-02T23:52:16.648Z,48.70
2023-04-02T23:54:43.373Z,48.50
2023-04-02T23:57:10.291Z,48.00
2023-04-02T23:59:37.273Z,49.00
